sensor_id;sensor_type;location;lat;lon;timestamp;temperature;humidity
39021;DHT22;25188;51.958;5.842;2024-03-23T00:51:59;8.60;99.90
39021;DHT22;25188;51.958;5.842;2024-03-23T00:54:25;8.60;99.90
39021;DHT22;25188;51.958;5.842;2024-03-23T00:56:50;8.60;99.90
39021;DHT22;25188;51.958;5.842;2024-03-23T00:59:16;8.60;99.90
39021;DHT22;25188;51.958;5.842;2024-03-23T01:01:41;8.50;99.90
39021;DHT22;25188;51.958;5.842;2024-03-23T01:04:07;8.50;99.90
39021;DHT22;25188;51.958;5.842;2024-03-23T01:06:33;8.50;99.90
39021;DHT22;25188;51.958;5.842;2024-03-23T01:08:58;8.50;99.90
39021;DHT22;25188;51.958;5.842;2024-03-23T01:11:24;8.50;99.90
39021;DHT22;25188;51.958;5.842;2024-03-23T01:13:49;8.50;99.90
39021;DHT22;25188;51.958;5.842;2024-03-23T01:16:15;8.40;99.90
39021;DHT22;25188;51.958;5.842;2024-03-23T01:18:40;8.40;99.90
39021;DHT22;25188;51.958;5.842;2024-03-23T01:21:06;8.40;99.90
39021;DHT22;25188;51.958;5.842;2024-03-23T01:23:32;8.40;99.90
39021;DHT22;25188;51.958;5.842;2024-03-23T01:25:57;8.40;99.90
39021;DHT22;25188;51.958;5.842;2024-03-23T01:28:23;8.40;99.90
39021;DHT22;25188;51.958;5.842;2024-03-23T01:30:49;8.40;99.90
39021;DHT22;25188;51.958;5.842;2024-03-23T01:33:14;8.30;99.90
39021;DHT22;25188;51.958;5.842;2024-03-23T01:35:40;8.30;99.90
39021;DHT22;25188;51.958;5.842;2024-03-23T01:38:06;8.40;99.90
39021;DHT22;25188;51.958;5.842;2024-03-23T01:40:32;8.30;99.90
39021;DHT22;25188;51.958;5.842;2024-03-23T01:42:58;8.30;99.90
39021;DHT22;25188;51.958;5.842;2024-03-23T01:45:24;8.30;99.90
39021;DHT22;25188;51.958;5.842;2024-03-23T01:47:53;8.30;99.90
39021;DHT22;25188;51.958;5.842;2024-03-23T01:50:21;8.20;99.90
39021;DHT22;25188;51.958;5.842;2024-03-23T01:52:48;8.20;99.90
39021;DHT22;25188;51.958;5.842;2024-03-23T01:55:14;8.20;99.90
39021;DHT22;25188;51.958;5.842;2024-03-23T01:57:39;8.20;99.90
39021;DHT22;25188;51.958;5.842;2024-03-23T02:00:05;8.20;99.90
39021;DHT22;25188;51.958;5.842;2024-03-23T02:02:31;8.20;99.90
39021;DHT22;25188;51.958;5.842;2024-03-23T02:04:57;8.20;99.90
39021;DHT22;25188;51.958;5.842;2024-03-23T02:07:23;8.30;99.90
39021;DHT22;25188;51.958;5.842;2024-03-23T02:09:53;8.20;99.90
39021;DHT22;25188;51.958;5.842;2024-03-23T02:12:19;8.20;99.90
39021;DHT22;25188;51.958;5.842;2024-03-23T02:14:46;8.20;99.90
39021;DHT22;25188;51.958;5.842;2024-03-23T02:17:12;8.20;99.90
39021;DHT22;25188;51.958;5.842;2024-03-23T02:19:38;8.20;99.90
39021;DHT22;25188;51.958;5.842;2024-03-23T02:22:04;8.20;99.90
39021;DHT22;25188;51.958;5.842;2024-03-23T02:24:30;8.20;99.90
39021;DHT22;25188;51.958;5.842;2024-03-23T02:26:55;8.30;99.90
39021;DHT22;25188;51.958;5.842;2024-03-23T02:29:21;8.20;99.90
39021;DHT22;25188;51.958;5.842;2024-03-23T02:31:46;8.20;99.90
39021;DHT22;25188;51.958;5.842;2024-03-23T02:34:12;8.20;99.90
39021;DHT22;25188;51.958;5.842;2024-03-23T02:36:38;8.20;99.90
39021;DHT22;25188;51.958;5.842;2024-03-23T02:39:03;8.10;99.90
39021;DHT22;25188;51.958;5.842;2024-03-23T02:41:30;8.10;99.90
39021;DHT22;25188;51.958;5.842;2024-03-23T02:43:56;8.00;99.90
39021;DHT22;25188;51.958;5.842;2024-03-23T02:46:21;8.10;99.90
39021;DHT22;25188;51.958;5.842;2024-03-23T02:48:48;8.10;99.90
39021;DHT22;25188;51.958;5.842;2024-03-23T02:51:14;8.10;99.90
39021;DHT22;25188;51.958;5.842;2024-03-23T02:53:40;8.00;99.90
39021;DHT22;25188;51.958;5.842;2024-03-23T02:56:05;8.00;99.90
39021;DHT22;25188;51.958;5.842;2024-03-23T02:58:32;8.00;99.90
39021;DHT22;25188;51.958;5.842;2024-03-23T03:00:57;8.00;99.90
39021;DHT22;25188;51.958;5.842;2024-03-23T03:03:23;7.90;99.90
39021;DHT22;25188;51.958;5.842;2024-03-23T03:05:55;7.90;99.90
39021;DHT22;25188;51.958;5.842;2024-03-23T03:08:20;7.90;99.90
39021;DHT22;25188;51.958;5.842;2024-03-23T03:10:46;7.80;99.90
39021;DHT22;25188;51.958;5.842;2024-03-23T03:13:12;7.80;99.90
39021;DHT22;25188;51.958;5.842;2024-03-23T03:15:37;7.80;99.90
39021;DHT22;25188;51.958;5.842;2024-03-23T03:18:03;7.80;99.90
39021;DHT22;25188;51.958;5.842;2024-03-23T03:20:28;7.70;99.90
39021;DHT22;25188;51.958;5.842;2024-03-23T03:22:54;7.70;99.90
39021;DHT22;25188;51.958;5.842;2024-03-23T03:25:20;7.60;99.90
39021;DHT22;25188;51.958;5.842;2024-03-23T03:27:45;7.60;99.90
39021;DHT22;25188;51.958;5.842;2024-03-23T03:30:11;7.60;99.90
39021;DHT22;25188;51.958;5.842;2024-03-23T03:32:37;7.50;99.90
39021;DHT22;25188;51.958;5.842;2024-03-23T03:35:02;7.50;99.90
39021;DHT22;25188;51.958;5.842;2024-03-23T03:37:28;7.50;99.90
39021;DHT22;25188;51.958;5.842;2024-03-23T03:39:54;7.50;99.90
39021;DHT22;25188;51.958;5.842;2024-03-23T03:42:19;7.40;99.90
39021;DHT22;25188;51.958;5.842;2024-03-23T03:44:45;7.40;99.90
39021;DHT22;25188;51.958;5.842;2024-03-23T03:47:10;7.50;99.90
39021;DHT22;25188;51.958;5.842;2024-03-23T03:49:36;7.50;99.90
39021;DHT22;25188;51.958;5.842;2024-03-23T03:52:02;7.50;99.90
39021;DHT22;25188;51.958;5.842;2024-03-23T03:54:27;7.50;99.90
39021;DHT22;25188;51.958;5.842;2024-03-23T03:56:53;7.40;99.90
39021;DHT22;25188;51.958;5.842;2024-03-23T03:59:19;7.40;99.90
39021;DHT22;25188;51.958;5.842;2024-03-23T04:01:45;7.40;99.90
39021;DHT22;25188;51.958;5.842;2024-03-23T04:04:11;7.30;99.90
39021;DHT22;25188;51.958;5.842;2024-03-23T04:06:37;7.30;99.90
39021;DHT22;25188;51.958;5.842;2024-03-23T04:09:02;7.30;99.90
39021;DHT22;25188;51.958;5.842;2024-03-23T04:11:28;7.30;99.90
39021;DHT22;25188;51.958;5.842;2024-03-23T04:13:54;7.20;99.90
39021;DHT22;25188;51.958;5.842;2024-03-23T04:16:33;7.10;99.90
39021;DHT22;25188;51.958;5.842;2024-03-23T04:18:59;7.10;99.90
39021;DHT22;25188;51.958;5.842;2024-03-23T04:21:24;7.00;99.90
39021;DHT22;25188;51.958;5.842;2024-03-23T04:23:50;7.00;99.90
39021;DHT22;25188;51.958;5.842;2024-03-23T04:26:16;6.90;99.90
39021;DHT22;25188;51.958;5.842;2024-03-23T04:28:41;6.90;99.90
39021;DHT22;25188;51.958;5.842;2024-03-23T04:31:08;6.90;99.90
39021;DHT22;25188;51.958;5.842;2024-03-23T04:33:34;6.80;99.90
39021;DHT22;25188;51.958;5.842;2024-03-23T04:35:59;6.80;99.90
39021;DHT22;25188;51.958;5.842;2024-03-23T04:38:25;6.80;99.90
39021;DHT22;25188;51.958;5.842;2024-03-23T04:40:58;6.70;99.90
39021;DHT22;25188;51.958;5.842;2024-03-23T04:43:25;6.70;99.90
39021;DHT22;25188;51.958;5.842;2024-03-23T04:45:50;6.70;99.90
39021;DHT22;25188;51.958;5.842;2024-03-23T04:48:16;6.60;99.90
39021;DHT22;25188;51.958;5.842;2024-03-23T04:50:42;6.60;99.90
39021;DHT22;25188;51.958;5.842;2024-03-23T04:53:07;6.60;99.90
39021;DHT22;25188;51.958;5.842;2024-03-23T04:55:33;6.50;99.90
39021;DHT22;25188;51.958;5.842;2024-03-23T04:57:59;6.50;99.90
39021;DHT22;25188;51.958;5.842;2024-03-23T05:00:25;6.40;99.90
39021;DHT22;25188;51.958;5.842;2024-03-23T05:02:51;6.40;99.90
39021;DHT22;25188;51.958;5.842;2024-03-23T05:05:18;6.40;99.90
39021;DHT22;25188;51.958;5.842;2024-03-23T05:07:44;6.30;99.90
39021;DHT22;25188;51.958;5.842;2024-03-23T05:10:09;6.30;99.90
39021;DHT22;25188;51.958;5.842;2024-03-23T05:12:39;6.20;99.90
39021;DHT22;25188;51.958;5.842;2024-03-23T05:15:05;6.20;99.90
39021;DHT22;25188;51.958;5.842;2024-03-23T05:17:32;6.20;99.90
39021;DHT22;25188;51.958;5.842;2024-03-23T05:19:58;6.20;99.90
39021;DHT22;25188;51.958;5.842;2024-03-23T05:22:24;6.10;99.90
39021;DHT22;25188;51.958;5.842;2024-03-23T05:24:49;6.10;99.90
39021;DHT22;25188;51.958;5.842;2024-03-23T05:27:15;6.10;99.90
39021;DHT22;25188;51.958;5.842;2024-03-23T05:29:40;6.10;99.90
39021;DHT22;25188;51.958;5.842;2024-03-23T05:32:06;6.00;99.90
39021;DHT22;25188;51.958;5.842;2024-03-23T05:34:32;6.00;99.90
39021;DHT22;25188;51.958;5.842;2024-03-23T05:36:58;6.00;99.90
39021;DHT22;25188;51.958;5.842;2024-03-23T05:39:23;6.00;99.90
39021;DHT22;25188;51.958;5.842;2024-03-23T05:41:49;6.00;99.90
39021;DHT22;25188;51.958;5.842;2024-03-23T05:44:15;5.90;99.90
39021;DHT22;25188;51.958;5.842;2024-03-23T05:46:41;5.90;99.90
39021;DHT22;25188;51.958;5.842;2024-03-23T05:49:08;5.90;99.90
39021;DHT22;25188;51.958;5.842;2024-03-23T05:51:34;5.90;99.90
39021;DHT22;25188;51.958;5.842;2024-03-23T05:54:00;5.90;99.90
39021;DHT22;25188;51.958;5.842;2024-03-23T05:56:26;5.90;99.90
39021;DHT22;25188;51.958;5.842;2024-03-23T05:58:52;5.80;99.90
39021;DHT22;25188;51.958;5.842;2024-03-23T06:01:17;5.90;99.90
39021;DHT22;25188;51.958;5.842;2024-03-23T06:03:43;5.80;99.90
39021;DHT22;25188;51.958;5.842;2024-03-23T06:06:10;5.90;99.90
39021;DHT22;25188;51.958;5.842;2024-03-23T06:08:38;5.90;99.90
39021;DHT22;25188;51.958;5.842;2024-03-23T06:11:04;5.90;99.90
39021;DHT22;25188;51.958;5.842;2024-03-23T06:13:33;5.90;99.90
39021;DHT22;25188;51.958;5.842;2024-03-23T06:16:01;5.90;99.90
39021;DHT22;25188;51.958;5.842;2024-03-23T06:18:26;5.90;99.90
39021;DHT22;25188;51.958;5.842;2024-03-23T06:20:53;5.90;99.90
39021;DHT22;25188;51.958;5.842;2024-03-23T06:23:18;5.90;99.90
39021;DHT22;25188;51.958;5.842;2024-03-23T06:25:46;5.90;99.90
39021;DHT22;25188;51.958;5.842;2024-03-23T06:28:11;6.10;99.90
39021;DHT22;25188;51.958;5.842;2024-03-23T06:30:37;6.10;99.90
39021;DHT22;25188;51.958;5.842;2024-03-23T06:33:03;6.20;99.90
39021;DHT22;25188;51.958;5.842;2024-03-23T06:35:28;6.40;99.90
39021;DHT22;25188;51.958;5.842;2024-03-23T06:37:54;6.50;99.90
39021;DHT22;25188;51.958;5.842;2024-03-23T06:40:19;6.50;99.90
39021;DHT22;25188;51.958;5.842;2024-03-23T06:42:45;6.60;99.90
39021;DHT22;25188;51.958;5.842;2024-03-23T06:45:11;6.60;99.90
39021;DHT22;25188;51.958;5.842;2024-03-23T06:47:36;6.60;99.90
39021;DHT22;25188;51.958;5.842;2024-03-23T06:50:03;6.60;99.90
39021;DHT22;25188;51.958;5.842;2024-03-23T06:52:32;6.70;99.90
39021;DHT22;25188;51.958;5.842;2024-03-23T06:54:58;6.70;99.90
39021;DHT22;25188;51.958;5.842;2024-03-23T06:57:23;6.70;99.90
39021;DHT22;25188;51.958;5.842;2024-03-23T06:59:49;6.80;99.90
39021;DHT22;25188;51.958;5.842;2024-03-23T07:02:15;6.90;99.90
39021;DHT22;25188;51.958;5.842;2024-03-23T07:04:41;6.90;99.90
39021;DHT22;25188;51.958;5.842;2024-03-23T07:07:07;7.10;99.90
39021;DHT22;25188;51.958;5.842;2024-03-23T07:09:32;7.10;99.90
39021;DHT22;25188;51.958;5.842;2024-03-23T07:11:58;7.20;99.90
39021;DHT22;25188;51.958;5.842;2024-03-23T07:14:24;7.30;99.90
39021;DHT22;25188;51.958;5.842;2024-03-23T07:16:50;7.20;99.90
39021;DHT22;25188;51.958;5.842;2024-03-23T07:19:16;7.30;99.90
39021;DHT22;25188;51.958;5.842;2024-03-23T07:21:45;7.30;99.90
39021;DHT22;25188;51.958;5.842;2024-03-23T07:24:11;7.30;99.90
39021;DHT22;25188;51.958;5.842;2024-03-23T07:26:37;7.30;99.90
39021;DHT22;25188;51.958;5.842;2024-03-23T07:29:06;7.30;99.90
39021;DHT22;25188;51.958;5.842;2024-03-23T07:31:32;7.30;99.90
39021;DHT22;25188;51.958;5.842;2024-03-23T07:33:58;7.30;99.90
39021;DHT22;25188;51.958;5.842;2024-03-23T07:36:23;7.30;99.90
39021;DHT22;25188;51.958;5.842;2024-03-23T07:38:49;7.20;99.90
39021;DHT22;25188;51.958;5.842;2024-03-23T07:41:17;7.30;99.90
39021;DHT22;25188;51.958;5.842;2024-03-23T07:43:43;7.20;99.90
39021;DHT22;25188;51.958;5.842;2024-03-23T07:46:09;7.30;99.90
39021;DHT22;25188;51.958;5.842;2024-03-23T07:48:35;7.30;99.90
39021;DHT22;25188;51.958;5.842;2024-03-23T07:51:25;7.30;99.90
39021;DHT22;25188;51.958;5.842;2024-03-23T07:53:51;7.30;99.90
39021;DHT22;25188;51.958;5.842;2024-03-23T07:56:18;7.30;99.90
39021;DHT22;25188;51.958;5.842;2024-03-23T07:58:44;7.40;99.90
39021;DHT22;25188;51.958;5.842;2024-03-23T08:01:13;7.30;99.90
39021;DHT22;25188;51.958;5.842;2024-03-23T08:03:58;7.40;99.90
39021;DHT22;25188;51.958;5.842;2024-03-23T08:06:24;7.40;99.90
39021;DHT22;25188;51.958;5.842;2024-03-23T08:08:54;7.60;99.90
39021;DHT22;25188;51.958;5.842;2024-03-23T08:11:29;7.70;99.90
39021;DHT22;25188;51.958;5.842;2024-03-23T08:13:55;7.70;99.90
39021;DHT22;25188;51.958;5.842;2024-03-23T08:16:21;7.70;99.90
39021;DHT22;25188;51.958;5.842;2024-03-23T08:18:47;7.80;99.90
39021;DHT22;25188;51.958;5.842;2024-03-23T08:21:13;7.90;99.90
39021;DHT22;25188;51.958;5.842;2024-03-23T08:23:39;7.90;99.90
39021;DHT22;25188;51.958;5.842;2024-03-23T08:26:05;8.00;99.90
39021;DHT22;25188;51.958;5.842;2024-03-23T08:28:31;8.10;99.90
39021;DHT22;25188;51.958;5.842;2024-03-23T08:31:00;8.10;99.90
39021;DHT22;25188;51.958;5.842;2024-03-23T08:33:25;8.20;99.90
39021;DHT22;25188;51.958;5.842;2024-03-23T08:35:55;8.30;99.90
39021;DHT22;25188;51.958;5.842;2024-03-23T08:38:24;8.40;99.90
39021;DHT22;25188;51.958;5.842;2024-03-23T08:41:05;8.40;99.90
39021;DHT22;25188;51.958;5.842;2024-03-23T08:43:35;8.50;99.10
39021;DHT22;25188;51.958;5.842;2024-03-23T08:48:31;8.50;98.10
39021;DHT22;25188;51.958;5.842;2024-03-23T08:51:07;8.60;98.20
39021;DHT22;25188;51.958;5.842;2024-03-23T08:53:34;8.70;98.00
39021;DHT22;25188;51.958;5.842;2024-03-23T08:56:00;8.90;96.20
39021;DHT22;25188;51.958;5.842;2024-03-23T08:58:27;8.80;95.90
39021;DHT22;25188;51.958;5.842;2024-03-23T09:00:54;9.00;93.80
39021;DHT22;25188;51.958;5.842;2024-03-23T09:03:23;9.00;94.20
39021;DHT22;25188;51.958;5.842;2024-03-23T09:05:50;9.10;93.40
39021;DHT22;25188;51.958;5.842;2024-03-23T09:08:16;9.20;93.50
39021;DHT22;25188;51.958;5.842;2024-03-23T09:10:42;9.20;92.80
39021;DHT22;25188;51.958;5.842;2024-03-23T09:13:08;9.20;93.30
39021;DHT22;25188;51.958;5.842;2024-03-23T09:15:35;9.10;93.90
39021;DHT22;25188;51.958;5.842;2024-03-23T09:18:01;9.20;94.40
39021;DHT22;25188;51.958;5.842;2024-03-23T09:20:27;9.20;94.60
39021;DHT22;25188;51.958;5.842;2024-03-23T09:22:53;9.20;94.50
39021;DHT22;25188;51.958;5.842;2024-03-23T09:25:18;9.00;93.80
39021;DHT22;25188;51.958;5.842;2024-03-23T09:27:47;9.00;94.00
39021;DHT22;25188;51.958;5.842;2024-03-23T09:30:13;8.90;94.50
39021;DHT22;25188;51.958;5.842;2024-03-23T09:32:43;8.80;94.80
39021;DHT22;25188;51.958;5.842;2024-03-23T09:35:08;8.80;94.30
39021;DHT22;25188;51.958;5.842;2024-03-23T09:37:34;8.80;93.80
39021;DHT22;25188;51.958;5.842;2024-03-23T09:40:00;8.80;93.40
39021;DHT22;25188;51.958;5.842;2024-03-23T09:42:25;8.70;92.80
39021;DHT22;25188;51.958;5.842;2024-03-23T09:44:51;8.70;92.90
39021;DHT22;25188;51.958;5.842;2024-03-23T09:47:17;8.70;93.10
39021;DHT22;25188;51.958;5.842;2024-03-23T09:49:44;8.70;92.90
39021;DHT22;25188;51.958;5.842;2024-03-23T09:52:10;8.70;93.30
39021;DHT22;25188;51.958;5.842;2024-03-23T09:54:35;8.80;93.50
39021;DHT22;25188;51.958;5.842;2024-03-23T09:57:01;8.80;93.60
39021;DHT22;25188;51.958;5.842;2024-03-23T09:59:29;8.90;93.40
39021;DHT22;25188;51.958;5.842;2024-03-23T10:01:55;9.00;93.20
39021;DHT22;25188;51.958;5.842;2024-03-23T10:04:37;9.20;92.60
39021;DHT22;25188;51.958;5.842;2024-03-23T10:07:17;9.40;91.40
39021;DHT22;25188;51.958;5.842;2024-03-23T10:09:43;9.60;90.50
39021;DHT22;25188;51.958;5.842;2024-03-23T10:12:17;9.80;87.00
39021;DHT22;25188;51.958;5.842;2024-03-23T10:14:43;10.00;86.20
39021;DHT22;25188;51.958;5.842;2024-03-23T10:17:15;10.30;86.30
39021;DHT22;25188;51.958;5.842;2024-03-23T10:19:44;10.60;82.00
39021;DHT22;25188;51.958;5.842;2024-03-23T10:22:12;10.90;81.50
39021;DHT22;25188;51.958;5.842;2024-03-23T10:24:38;11.30;78.70
39021;DHT22;25188;51.958;5.842;2024-03-23T10:27:04;11.80;76.30
39021;DHT22;25188;51.958;5.842;2024-03-23T10:29:29;12.20;75.10
39021;DHT22;25188;51.958;5.842;2024-03-23T10:32:10;12.10;72.90
39021;DHT22;25188;51.958;5.842;2024-03-23T10:34:37;11.90;75.00
39021;DHT22;25188;51.958;5.842;2024-03-23T10:37:03;11.70;74.40
39021;DHT22;25188;51.958;5.842;2024-03-23T10:39:39;11.40;73.10
39021;DHT22;25188;51.958;5.842;2024-03-23T10:42:09;11.70;76.00
39021;DHT22;25188;51.958;5.842;2024-03-23T10:44:40;12.20;75.30
39021;DHT22;25188;51.958;5.842;2024-03-23T10:47:05;12.80;75.30
39021;DHT22;25188;51.958;5.842;2024-03-23T10:49:33;13.40;74.40
39021;DHT22;25188;51.958;5.842;2024-03-23T10:52:00;13.60;70.50
39021;DHT22;25188;51.958;5.842;2024-03-23T10:54:26;13.90;68.80
39021;DHT22;25188;51.958;5.842;2024-03-23T10:57:14;13.90;67.00
39021;DHT22;25188;51.958;5.842;2024-03-23T10:59:41;14.20;66.50
39021;DHT22;25188;51.958;5.842;2024-03-23T11:02:19;14.20;66.50
39021;DHT22;25188;51.958;5.842;2024-03-23T11:04:44;14.20;65.20
39021;DHT22;25188;51.958;5.842;2024-03-23T11:07:32;14.20;66.70
39021;DHT22;25188;51.958;5.842;2024-03-23T11:09:59;14.20;64.40
39021;DHT22;25188;51.958;5.842;2024-03-23T11:12:28;14.30;63.00
39021;DHT22;25188;51.958;5.842;2024-03-23T11:15:11;14.30;62.00
39021;DHT22;25188;51.958;5.842;2024-03-23T11:17:37;14.10;60.70
39021;DHT22;25188;51.958;5.842;2024-03-23T11:20:04;14.10;62.00
39021;DHT22;25188;51.958;5.842;2024-03-23T11:22:38;14.50;61.90
39021;DHT22;25188;51.958;5.842;2024-03-23T11:25:20;15.00;61.90
39021;DHT22;25188;51.958;5.842;2024-03-23T11:27:47;15.20;59.30
39021;DHT22;25188;51.958;5.842;2024-03-23T11:30:16;15.60;60.10
39021;DHT22;25188;51.958;5.842;2024-03-23T11:32:46;15.80;58.30
39021;DHT22;25188;51.958;5.842;2024-03-23T11:35:28;15.70;54.70
39021;DHT22;25188;51.958;5.842;2024-03-23T11:40:29;14.80;57.90
39021;DHT22;25188;51.958;5.842;2024-03-23T11:43:12;14.60;59.40
39021;DHT22;25188;51.958;5.842;2024-03-23T11:45:45;14.60;57.80
39021;DHT22;25188;51.958;5.842;2024-03-23T11:50:42;13.90;60.80
39021;DHT22;25188;51.958;5.842;2024-03-23T11:53:19;14.20;60.20
39021;DHT22;25188;51.958;5.842;2024-03-23T11:55:56;14.40;60.00
39021;DHT22;25188;51.958;5.842;2024-03-23T11:58:24;14.10;59.10
39021;DHT22;25188;51.958;5.842;2024-03-23T12:00:56;13.60;57.80
39021;DHT22;25188;51.958;5.842;2024-03-23T12:03:23;12.90;58.50
39021;DHT22;25188;51.958;5.842;2024-03-23T12:05:52;12.50;60.90
39021;DHT22;25188;51.958;5.842;2024-03-23T12:08:20;12.50;61.60
39021;DHT22;25188;51.958;5.842;2024-03-23T12:11:08;12.50;61.10
39021;DHT22;25188;51.958;5.842;2024-03-23T12:13:37;12.20;61.50
39021;DHT22;25188;51.958;5.842;2024-03-23T12:16:13;12.00;62.60
39021;DHT22;25188;51.958;5.842;2024-03-23T12:18:41;11.70;63.20
39021;DHT22;25188;51.958;5.842;2024-03-23T12:21:07;11.50;64.20
39021;DHT22;25188;51.958;5.842;2024-03-23T12:23:34;11.30;65.10
39021;DHT22;25188;51.958;5.842;2024-03-23T12:26:00;11.30;65.50
39021;DHT22;25188;51.958;5.842;2024-03-23T12:28:27;11.40;65.90
39021;DHT22;25188;51.958;5.842;2024-03-23T12:30:53;11.40;65.90
39021;DHT22;25188;51.958;5.842;2024-03-23T12:33:20;11.40;66.20
39021;DHT22;25188;51.958;5.842;2024-03-23T12:35:45;11.70;67.20
39021;DHT22;25188;51.958;5.842;2024-03-23T12:38:11;12.10;66.90
39021;DHT22;25188;51.958;5.842;2024-03-23T12:40:37;12.60;65.30
39021;DHT22;25188;51.958;5.842;2024-03-23T12:43:02;13.40;65.20
39021;DHT22;25188;51.958;5.842;2024-03-23T12:45:28;14.10;61.20
39021;DHT22;25188;51.958;5.842;2024-03-23T12:47:53;14.80;59.70
39021;DHT22;25188;51.958;5.842;2024-03-23T12:50:20;15.30;56.70
39021;DHT22;25188;51.958;5.842;2024-03-23T12:52:46;15.90;55.80
39021;DHT22;25188;51.958;5.842;2024-03-23T12:55:12;16.30;54.60
39021;DHT22;25188;51.958;5.842;2024-03-23T12:57:37;16.80;55.30
39021;DHT22;25188;51.958;5.842;2024-03-23T13:00:04;16.90;53.00
39021;DHT22;25188;51.958;5.842;2024-03-23T13:02:30;17.00;52.10
39021;DHT22;25188;51.958;5.842;2024-03-23T13:04:55;17.10;51.90
39021;DHT22;25188;51.958;5.842;2024-03-23T13:07:22;17.20;50.60
39021;DHT22;25188;51.958;5.842;2024-03-23T13:09:52;17.50;50.20
39021;DHT22;25188;51.958;5.842;2024-03-23T13:12:21;17.80;50.50
39021;DHT22;25188;51.958;5.842;2024-03-23T13:14:47;17.90;48.90
39021;DHT22;25188;51.958;5.842;2024-03-23T13:17:13;17.90;48.50
39021;DHT22;25188;51.958;5.842;2024-03-23T13:19:38;17.70;48.70
39021;DHT22;25188;51.958;5.842;2024-03-23T13:22:04;17.10;48.20
39021;DHT22;25188;51.958;5.842;2024-03-23T13:24:30;16.60;49.50
39021;DHT22;25188;51.958;5.842;2024-03-23T13:26:57;16.10;51.90
39021;DHT22;25188;51.958;5.842;2024-03-23T13:29:23;16.10;56.60
39021;DHT22;25188;51.958;5.842;2024-03-23T13:31:50;16.10;55.60
39021;DHT22;25188;51.958;5.842;2024-03-23T13:34:16;15.50;54.20
39021;DHT22;25188;51.958;5.842;2024-03-23T13:36:43;14.80;54.70
39021;DHT22;25188;51.958;5.842;2024-03-23T13:39:08;14.10;55.20
39021;DHT22;25188;51.958;5.842;2024-03-23T13:41:41;13.50;56.80
39021;DHT22;25188;51.958;5.842;2024-03-23T13:44:08;13.50;58.80
39021;DHT22;25188;51.958;5.842;2024-03-23T13:46:34;13.90;58.40
39021;DHT22;25188;51.958;5.842;2024-03-23T13:49:00;14.50;58.40
39021;DHT22;25188;51.958;5.842;2024-03-23T13:51:26;15.30;57.50
39021;DHT22;25188;51.958;5.842;2024-03-23T13:53:53;15.80;54.80
39021;DHT22;25188;51.958;5.842;2024-03-23T13:56:20;15.70;53.60
39021;DHT22;25188;51.958;5.842;2024-03-23T13:58:45;15.30;53.10
39021;DHT22;25188;51.958;5.842;2024-03-23T14:01:13;14.90;52.90
39021;DHT22;25188;51.958;5.842;2024-03-23T14:03:39;15.00;54.30
39021;DHT22;25188;51.958;5.842;2024-03-23T14:06:06;15.00;55.70
39021;DHT22;25188;51.958;5.842;2024-03-23T14:08:33;14.70;57.40
39021;DHT22;25188;51.958;5.842;2024-03-23T14:11:03;14.30;60.00
39021;DHT22;25188;51.958;5.842;2024-03-23T14:13:30;13.60;63.00
39021;DHT22;25188;51.958;5.842;2024-03-23T14:15:55;13.40;64.00
39021;DHT22;25188;51.958;5.842;2024-03-23T14:18:21;13.40;64.00
39021;DHT22;25188;51.958;5.842;2024-03-23T14:20:51;13.70;63.70
39021;DHT22;25188;51.958;5.842;2024-03-23T14:23:17;13.90;61.90
39021;DHT22;25188;51.958;5.842;2024-03-23T14:25:43;13.60;61.20
39021;DHT22;25188;51.958;5.842;2024-03-23T14:28:08;13.30;61.30
39021;DHT22;25188;51.958;5.842;2024-03-23T14:30:40;12.90;62.30
39021;DHT22;25188;51.958;5.842;2024-03-23T14:33:06;12.50;65.40
39021;DHT22;25188;51.958;5.842;2024-03-23T14:35:31;12.10;67.00
39021;DHT22;25188;51.958;5.842;2024-03-23T14:37:58;11.80;66.50
39021;DHT22;25188;51.958;5.842;2024-03-23T14:40:24;11.60;66.60
39021;DHT22;25188;51.958;5.842;2024-03-23T14:42:53;11.40;66.90
39021;DHT22;25188;51.958;5.842;2024-03-23T14:45:19;11.00;68.50
39021;DHT22;25188;51.958;5.842;2024-03-23T14:47:44;11.00;69.10
39021;DHT22;25188;51.958;5.842;2024-03-23T14:50:10;11.00;69.50
39021;DHT22;25188;51.958;5.842;2024-03-23T14:52:49;10.90;69.40
39021;DHT22;25188;51.958;5.842;2024-03-23T14:55:16;10.70;70.00
39021;DHT22;25188;51.958;5.842;2024-03-23T14:57:42;10.80;71.10
39021;DHT22;25188;51.958;5.842;2024-03-23T15:00:08;11.00;70.00
39021;DHT22;25188;51.958;5.842;2024-03-23T15:02:36;11.00;69.20
39021;DHT22;25188;51.958;5.842;2024-03-23T15:05:02;10.90;68.50
39021;DHT22;25188;51.958;5.842;2024-03-23T15:07:30;10.70;69.00
39021;DHT22;25188;51.958;5.842;2024-03-23T15:09:56;10.50;69.70
39021;DHT22;25188;51.958;5.842;2024-03-23T15:12:21;10.40;70.40
39021;DHT22;25188;51.958;5.842;2024-03-23T15:14:47;10.50;70.60
39021;DHT22;25188;51.958;5.842;2024-03-23T15:17:13;10.90;71.80
39021;DHT22;25188;51.958;5.842;2024-03-23T15:19:39;11.60;71.30
39021;DHT22;25188;51.958;5.842;2024-03-23T15:22:05;12.40;66.90
39021;DHT22;25188;51.958;5.842;2024-03-23T15:24:31;13.10;65.40
39021;DHT22;25188;51.958;5.842;2024-03-23T15:26:57;13.70;64.00
39021;DHT22;25188;51.958;5.842;2024-03-23T15:29:22;14.30;63.50
39021;DHT22;25188;51.958;5.842;2024-03-23T15:31:48;14.80;62.50
39021;DHT22;25188;51.958;5.842;2024-03-23T15:34:20;15.10;61.30
39021;DHT22;25188;51.958;5.842;2024-03-23T15:36:48;14.90;59.70
39021;DHT22;25188;51.958;5.842;2024-03-23T15:39:18;14.60;59.60
39021;DHT22;25188;51.958;5.842;2024-03-23T15:41:47;14.50;60.60
39021;DHT22;25188;51.958;5.842;2024-03-23T15:44:13;14.60;61.60
39021;DHT22;25188;51.958;5.842;2024-03-23T15:46:39;15.00;62.00
39021;DHT22;25188;51.958;5.842;2024-03-23T15:49:05;15.40;61.80
39021;DHT22;25188;51.958;5.842;2024-03-23T15:51:31;15.70;60.60
39021;DHT22;25188;51.958;5.842;2024-03-23T15:54:00;15.90;57.90
39021;DHT22;25188;51.958;5.842;2024-03-23T15:56:26;16.00;55.70
39021;DHT22;25188;51.958;5.842;2024-03-23T15:58:51;16.00;53.20
39021;DHT22;25188;51.958;5.842;2024-03-23T16:01:17;15.70;53.50
39021;DHT22;25188;51.958;5.842;2024-03-23T16:03:43;15.60;54.00
39021;DHT22;25188;51.958;5.842;2024-03-23T16:06:09;15.50;54.10
39021;DHT22;25188;51.958;5.842;2024-03-23T16:08:35;15.50;53.90
39021;DHT22;25188;51.958;5.842;2024-03-23T16:11:02;15.50;54.90
39021;DHT22;25188;51.958;5.842;2024-03-23T16:13:28;15.40;54.80
39021;DHT22;25188;51.958;5.842;2024-03-23T16:16:06;15.20;54.90
39021;DHT22;25188;51.958;5.842;2024-03-23T16:18:37;15.10;55.80
39021;DHT22;25188;51.958;5.842;2024-03-23T16:21:06;14.90;56.50
39021;DHT22;25188;51.958;5.842;2024-03-23T16:23:35;14.70;56.60
39021;DHT22;25188;51.958;5.842;2024-03-23T16:26:06;14.50;56.80
39021;DHT22;25188;51.958;5.842;2024-03-23T16:28:34;14.30;57.90
39021;DHT22;25188;51.958;5.842;2024-03-23T16:31:02;14.30;58.80
39021;DHT22;25188;51.958;5.842;2024-03-23T16:33:28;14.20;59.00
39021;DHT22;25188;51.958;5.842;2024-03-23T16:36:01;14.20;59.10
39021;DHT22;25188;51.958;5.842;2024-03-23T16:38:28;14.20;59.40